createdAt,value
2022-12-18T00:01:19.233Z,18.78
2022-12-18T00:03:47.332Z,18.76
2022-12-18T00:06:16.097Z,18.79
2022-12-18T00:08:44.750Z,18.77
2022-12-18T00:11:15.821Z,18.78
2022-12-18T00:13:44.166Z,18.78
2022-12-18T00:16:14.603Z,18.79
2022-12-18T00:18:42.885Z,18.77
2022-12-18T00:21:12.161Z,18.78
2022-12-18T00:23:41.868Z,18.77
2022-12-18T00:26:13.686Z,18.77
2022-12-18T00:28:40.965Z,18.76
2022-12-18T00:31:11.430Z,18.76
2022-12-18T00:33:39.723Z,18.76
2022-12-18T00:36:10.619Z,18.74
2022-12-18T00:38:39.025Z,18.76
2022-12-18T00:41:08.597Z,18.75
2022-12-18T00:43:37.977Z,18.73
2022-12-18T00:46:05.858Z,18.74
2022-12-18T00:48:33.787Z,18.74
2022-12-18T00:51:01.241Z,18.74
2022-12-18T00:53:28.563Z,18.74
2022-12-18T00:55:57.091Z,18.74
2022-12-18T00:58:24.523Z,18.74
2022-12-18T01:00:51.865Z,18.74
2022-12-18T01:03:19.193Z,18.74
2022-12-18T01:05:46.658Z,18.74
2022-12-18T01:08:13.883Z,18.72
2022-12-18T01:10:44.398Z,18.72
2022-12-18T01:13:12.381Z,18.73
2022-12-18T01:15:41.134Z,18.71
2022-12-18T01:18:11.683Z,18.71
2022-12-18T01:20:39.293Z,18.71
2022-12-18T01:23:06.715Z,18.72
2022-12-18T01:25:37.286Z,18.71
2022-12-18T01:28:04.744Z,18.71
2022-12-18T01:30:33.211Z,18.70
2022-12-18T01:33:00.571Z,18.70
2022-12-18T01:35:27.914Z,18.70
2022-12-18T01:37:56.126Z,18.70
2022-12-18T01:40:23.815Z,18.71
2022-12-18T01:42:54.253Z,18.71
2022-12-18T01:45:26.443Z,18.71
2022-12-18T01:47:56.419Z,18.71
2022-12-18T01:50:33.275Z,18.71
2022-12-18T01:53:06.694Z,18.70
2022-12-18T01:55:41.453Z,18.70
2022-12-18T01:58:08.741Z,18.71
2022-12-18T02:00:36.184Z,18.71
2022-12-18T02:03:03.665Z,18.71
2022-12-18T02:05:40.125Z,18.71
2022-12-18T02:08:17.952Z,18.71
2022-12-18T02:11:03.831Z,18.72
2022-12-18T02:13:50.964Z,18.71
2022-12-18T02:16:21.225Z,18.72
2022-12-18T02:18:58.953Z,18.71
2022-12-18T02:21:44.055Z,18.71
2022-12-18T02:24:40.759Z,18.71
2022-12-18T02:27:10.500Z,18.72
2022-12-18T02:29:54.333Z,18.71
2022-12-18T02:32:31.272Z,18.70
2022-12-18T02:35:00.403Z,18.71
2022-12-18T02:37:31.796Z,18.71
2022-12-18T02:40:05.122Z,18.70
2022-12-18T02:42:34.321Z,18.71
2022-12-18T02:45:04.256Z,18.70
2022-12-18T02:47:37.990Z,18.70
2022-12-18T02:50:32.062Z,18.70
2022-12-18T02:53:16.578Z,18.70
2022-12-18T02:55:46.918Z,18.70
2022-12-18T02:58:22.534Z,18.70
2022-12-18T03:01:02.727Z,18.69
2022-12-18T03:03:40.662Z,18.70
2022-12-18T03:06:34.471Z,18.70
2022-12-18T03:09:10.205Z,18.69
2022-12-18T03:12:02.165Z,18.70
2022-12-18T03:14:32.126Z,18.69
2022-12-18T03:17:03.600Z,18.69
2022-12-18T03:19:34.399Z,18.69
2022-12-18T03:22:08.104Z,18.69
2022-12-18T03:24:47.251Z,18.69
2022-12-18T03:27:17.901Z,18.68
2022-12-18T03:29:47.665Z,18.69
2022-12-18T03:32:30.441Z,18.70
2022-12-18T03:35:04.203Z,18.69
2022-12-18T03:37:34.908Z,18.70
2022-12-18T03:40:02.857Z,18.69
2022-12-18T03:42:53.771Z,18.69
2022-12-18T03:45:38.712Z,18.69
2022-12-18T03:48:17.009Z,18.69
2022-12-18T03:50:58.283Z,18.69
2022-12-18T03:53:40.576Z,18.70
2022-12-18T03:56:10.889Z,18.69
2022-12-18T03:58:44.233Z,18.70
2022-12-18T04:01:20.866Z,18.70
2022-12-18T04:03:51.070Z,18.70
2022-12-18T04:06:21.168Z,18.69
2022-12-18T04:08:48.760Z,18.70
2022-12-18T04:11:20.924Z,18.71
2022-12-18T04:13:48.883Z,18.70
2022-12-18T04:16:23.046Z,18.71
2022-12-18T04:18:54.172Z,18.71
2022-12-18T04:21:23.760Z,18.71
2022-12-18T04:23:51.263Z,18.71
2022-12-18T04:26:21.472Z,18.71
2022-12-18T04:29:20.956Z,18.70
2022-12-18T04:31:48.637Z,18.71
2022-12-18T04:34:17.115Z,18.71
2022-12-18T04:36:50.417Z,18.70
2022-12-18T04:39:18.381Z,18.70
2022-12-18T04:41:46.608Z,18.70
2022-12-18T04:44:14.825Z,18.71
2022-12-18T04:46:42.249Z,18.71
2022-12-18T04:49:11.416Z,18.71
2022-12-18T04:51:38.722Z,18.72
2022-12-18T04:54:06.119Z,18.72
2022-12-18T04:56:33.589Z,18.71
2022-12-18T04:59:01.266Z,18.71
2022-12-18T05:01:34.362Z,18.73
2022-12-18T05:04:02.905Z,18.72
2022-12-18T05:06:30.427Z,18.71
2022-12-18T05:08:57.766Z,18.72
2022-12-18T05:11:25.079Z,18.71
2022-12-18T05:13:52.425Z,18.70
2022-12-18T05:16:19.761Z,18.71
2022-12-18T05:18:55.901Z,18.70
2022-12-18T05:21:23.219Z,18.72
2022-12-18T05:23:50.447Z,18.70
2022-12-18T05:26:19.122Z,18.71
2022-12-18T05:28:47.114Z,18.70
2022-12-18T05:31:15.269Z,18.71
2022-12-18T05:33:43.005Z,18.70
2022-12-18T05:36:10.856Z,18.71
2022-12-18T05:38:39.579Z,18.71
2022-12-18T05:41:08.176Z,18.71
2022-12-18T05:43:37.546Z,18.71
2022-12-18T05:46:07.489Z,18.70
2022-12-18T05:48:35.349Z,18.70
2022-12-18T05:51:08.315Z,18.71
2022-12-18T05:53:37.810Z,18.70
2022-12-18T05:56:07.869Z,18.71
2022-12-18T05:58:35.779Z,18.71
2022-12-18T06:01:20.458Z,18.70
2022-12-18T06:03:48.106Z,18.71
2022-12-18T06:06:16.892Z,18.70
2022-12-18T06:08:46.702Z,18.70
2022-12-18T06:11:18.506Z,18.70
2022-12-18T06:13:46.069Z,18.70
2022-12-18T06:16:14.098Z,18.71
2022-12-18T06:18:41.432Z,18.69
2022-12-18T06:21:08.747Z,18.71
2022-12-18T06:23:37.004Z,18.70
2022-12-18T06:26:09.927Z,18.71
2022-12-18T06:28:37.251Z,18.70
2022-12-18T06:31:05.824Z,18.70
2022-12-18T06:33:33.792Z,18.70
2022-12-18T06:36:03.750Z,18.70
2022-12-18T06:38:34.065Z,18.70
2022-12-18T06:41:01.343Z,18.70
2022-12-18T06:43:28.619Z,18.71
2022-12-18T06:46:00.815Z,18.70
2022-12-18T06:48:28.372Z,18.71
2022-12-18T06:50:55.935Z,18.71
2022-12-18T06:53:23.893Z,18.70
2022-12-18T06:55:51.384Z,18.70
2022-12-18T06:58:19.024Z,18.70
2022-12-18T07:00:46.411Z,18.69
2022-12-18T07:03:14.152Z,18.70
2022-12-18T07:05:42.128Z,18.70
2022-12-18T07:08:09.446Z,18.70
2022-12-18T07:10:47.522Z,18.70
2022-12-18T07:13:17.382Z,18.70
2022-12-18T07:15:45.444Z,18.71
2022-12-18T07:18:12.816Z,18.71
2022-12-18T07:20:40.872Z,18.69
2022-12-18T07:23:08.169Z,18.71
2022-12-18T07:25:37.402Z,18.70
2022-12-18T07:28:05.680Z,18.71
2022-12-18T07:30:32.974Z,18.70
2022-12-18T07:33:00.345Z,18.71
2022-12-18T07:35:27.600Z,18.70
2022-12-18T07:37:54.879Z,18.72
2022-12-18T07:40:22.170Z,18.70
2022-12-18T07:42:49.474Z,18.71
2022-12-18T07:45:16.925Z,18.70
2022-12-18T07:47:44.505Z,18.71
2022-12-18T07:50:12.004Z,18.71
2022-12-18T07:52:39.277Z,18.71
2022-12-18T07:55:06.948Z,18.72
2022-12-18T07:57:50.019Z,18.71
2022-12-18T08:00:18.894Z,18.71
2022-12-18T08:02:46.239Z,18.71
2022-12-18T08:05:14.395Z,18.71
2022-12-18T08:07:41.712Z,18.71
2022-12-18T08:10:09.599Z,18.71
2022-12-18T08:12:36.904Z,18.71
2022-12-18T08:15:04.462Z,18.71
2022-12-18T08:17:32.284Z,18.71
2022-12-18T08:19:59.585Z,18.71
2022-12-18T08:22:26.891Z,18.72
2022-12-18T08:24:54.389Z,18.70
2022-12-18T08:27:29.438Z,18.71
2022-12-18T08:29:57.842Z,18.70
2022-12-18T08:32:27.223Z,18.72
2022-12-18T08:34:54.918Z,18.72
2022-12-18T08:37:22.274Z,18.71
2022-12-18T08:39:49.589Z,18.72
2022-12-18T08:42:35.592Z,18.72
2022-12-18T08:45:03.995Z,18.73
2022-12-18T08:47:31.316Z,18.74
2022-12-18T08:49:58.721Z,18.74
2022-12-18T08:52:26.021Z,18.74
2022-12-18T08:54:53.210Z,18.74
2022-12-18T08:57:20.480Z,18.75
2022-12-18T08:59:47.697Z,18.77
2022-12-18T09:02:15.049Z,18.77
2022-12-18T09:04:42.520Z,18.77
2022-12-18T09:07:10.029Z,18.78
2022-12-18T09:09:37.443Z,18.80
2022-12-18T09:12:04.812Z,18.81
2022-12-18T09:14:32.050Z,18.82
2022-12-18T09:16:59.394Z,18.83
2022-12-18T09:19:27.813Z,18.84
2022-12-18T09:21:55.493Z,18.84
2022-12-18T09:24:22.847Z,18.85
2022-12-18T09:26:57.663Z,18.86
2022-12-18T09:29:25.652Z,18.86
2022-12-18T09:31:53.021Z,18.86
2022-12-18T09:34:22.729Z,18.87
2022-12-18T09:36:50.339Z,18.87
2022-12-18T09:39:18.544Z,18.87
2022-12-18T09:41:57.991Z,18.88
2022-12-18T09:44:44.511Z,18.87
2022-12-18T09:47:15.553Z,18.88
2022-12-18T09:49:49.319Z,18.88
2022-12-18T09:52:36.888Z,18.90
2022-12-18T09:55:25.713Z,18.88
2022-12-18T09:57:58.720Z,18.88
2022-12-18T10:00:26.851Z,18.89
2022-12-18T10:03:00.860Z,18.91
2022-12-18T10:06:02.932Z,18.92
2022-12-18T10:09:03.492Z,18.91
2022-12-18T10:11:50.139Z,18.91
2022-12-18T10:14:35.901Z,18.90
2022-12-18T10:17:21.773Z,18.89
2022-12-18T10:20:15.297Z,18.90
2022-12-18T10:23:01.480Z,18.91
2022-12-18T10:25:46.709Z,18.90
2022-12-18T10:28:16.558Z,18.90
2022-12-18T10:30:44.850Z,18.88
2022-12-18T10:33:18.950Z,18.89
2022-12-18T10:35:48.093Z,18.88
2022-12-18T10:38:15.345Z,18.88
2022-12-18T10:40:55.052Z,18.87
2022-12-18T10:43:32.870Z,18.86
2022-12-18T10:46:09.049Z,18.88
2022-12-18T10:48:48.125Z,18.88
2022-12-18T10:51:30.292Z,18.88
2022-12-18T10:54:03.051Z,18.90
2022-12-18T10:56:35.059Z,18.91
2022-12-18T10:59:13.729Z,18.89
2022-12-18T11:01:53.193Z,18.83
2022-12-18T11:04:31.523Z,18.80
2022-12-18T11:07:03.916Z,18.81
2022-12-18T11:09:33.889Z,18.81
2022-12-18T11:12:15.467Z,18.83
2022-12-18T11:14:47.609Z,18.83
2022-12-18T11:17:25.847Z,18.84
2022-12-18T11:20:07.942Z,18.85
2022-12-18T11:22:37.853Z,18.87
2022-12-18T11:25:35.437Z,18.88
2022-12-18T11:28:25.966Z,18.87
2022-12-18T11:31:18.111Z,18.89
2022-12-18T11:34:28.550Z,18.91
2022-12-18T11:37:00.632Z,18.92
2022-12-18T11:39:33.916Z,18.92
2022-12-18T11:42:21.346Z,18.94
2022-12-18T11:44:59.393Z,18.95
2022-12-18T11:47:40.246Z,18.95
2022-12-18T11:51:03.223Z,18.95
2022-12-18T11:53:31.463Z,18.94
2022-12-18T11:56:16.938Z,18.95
2022-12-18T11:58:47.160Z,18.96
2022-12-18T12:01:29.216Z,18.96
2022-12-18T12:04:17.826Z,18.97
2022-12-18T12:07:06.679Z,18.97
2022-12-18T12:09:58.361Z,18.97
2022-12-18T12:12:48.552Z,18.96
2022-12-18T12:15:56.485Z,18.97
2022-12-18T12:18:57.756Z,18.97
2022-12-18T12:21:50.955Z,18.96
2022-12-18T12:24:25.414Z,18.97
2022-12-18T12:27:16.408Z,18.99
2022-12-18T12:29:56.742Z,18.97
2022-12-18T12:32:32.264Z,18.98
2022-12-18T12:35:18.073Z,18.98
2022-12-18T12:38:06.786Z,18.98
2022-12-18T12:40:52.670Z,19.00
2022-12-18T12:46:52.922Z,19.05
2022-12-18T12:49:24.638Z,19.05
2022-12-18T12:52:01.720Z,19.05
2022-12-18T12:54:29.970Z,19.06
2022-12-18T12:57:14.515Z,19.05
2022-12-18T12:59:59.410Z,19.03
2022-12-18T13:02:37.023Z,19.03
2022-12-18T13:05:35.894Z,19.03
2022-12-18T13:08:11.010Z,19.04
2022-12-18T13:10:41.518Z,19.03
2022-12-18T13:13:16.495Z,19.04
2022-12-18T13:16:06.622Z,19.03
2022-12-18T13:18:35.433Z,19.05
2022-12-18T13:21:25.715Z,19.06
2022-12-18T13:23:53.061Z,19.07
2022-12-18T13:26:24.760Z,19.06
2022-12-18T13:28:56.578Z,19.05
2022-12-18T13:31:43.400Z,19.06
2022-12-18T13:34:27.737Z,19.07
2022-12-18T13:37:17.730Z,19.06
2022-12-18T13:39:45.189Z,19.06
2022-12-18T13:42:35.825Z,19.06
2022-12-18T13:45:58.332Z,19.06
2022-12-18T13:48:27.990Z,19.07
2022-12-18T13:51:05.704Z,19.08
2022-12-18T13:53:45.737Z,19.08
2022-12-18T13:56:29.441Z,19.08
2022-12-18T13:59:17.911Z,19.08
2022-12-18T14:01:56.495Z,19.08
2022-12-18T14:04:30.333Z,19.07
2022-12-18T14:07:11.906Z,19.08
2022-12-18T14:09:44.385Z,19.09
2022-12-18T14:12:45.045Z,19.08
2022-12-18T14:15:28.054Z,19.09
2022-12-18T14:17:59.337Z,19.08
2022-12-18T14:20:29.264Z,19.08
2022-12-18T14:22:58.469Z,19.09
2022-12-18T14:25:31.797Z,19.09
2022-12-18T14:28:09.143Z,19.08
2022-12-18T14:30:37.491Z,19.08
2022-12-18T14:33:16.493Z,19.09
2022-12-18T14:36:05.562Z,19.08
2022-12-18T14:38:37.260Z,19.08
2022-12-18T14:41:12.942Z,19.08
2022-12-18T14:43:43.530Z,19.08
2022-12-18T14:46:40.243Z,19.08
2022-12-18T14:49:25.832Z,19.08
2022-12-18T14:51:56.214Z,19.08
2022-12-18T14:54:25.184Z,19.08
2022-12-18T14:57:21.344Z,19.09
2022-12-18T14:59:48.766Z,19.09
2022-12-18T15:02:28.992Z,19.09
2022-12-18T15:05:13.584Z,19.10
2022-12-18T15:07:51.845Z,19.08
2022-12-18T15:10:27.744Z,19.10
2022-12-18T15:12:58.084Z,19.08
2022-12-18T15:15:34.931Z,19.08
2022-12-18T15:18:09.795Z,19.08
2022-12-18T15:20:41.323Z,19.07
2022-12-18T15:23:37.391Z,19.06
2022-12-18T15:26:11.470Z,19.07
2022-12-18T15:28:40.729Z,19.08
2022-12-18T15:31:12.515Z,19.07
2022-12-18T15:33:47.178Z,19.07
2022-12-18T15:36:18.999Z,19.07
2022-12-18T15:38:56.169Z,19.08
2022-12-18T15:41:35.752Z,19.08
2022-12-18T15:44:21.904Z,19.08
2022-12-18T15:46:49.409Z,19.08
2022-12-18T15:49:16.666Z,19.08
2022-12-18T15:51:44.275Z,19.08
2022-12-18T15:54:17.147Z,19.08
2022-12-18T15:57:03.080Z,19.08
2022-12-18T15:59:30.441Z,19.09
2022-12-18T16:01:58.040Z,19.08
2022-12-18T16:04:26.269Z,19.08
2022-12-18T16:09:41.148Z,19.09
2022-12-18T16:12:20.263Z,19.08
2022-12-18T16:14:47.618Z,19.08
2022-12-18T16:17:15.753Z,19.08
2022-12-18T16:19:44.814Z,19.09
2022-12-18T16:22:28.831Z,19.08
2022-12-18T16:24:57.247Z,19.09
2022-12-18T16:27:25.732Z,19.10
2022-12-18T16:29:52.943Z,19.10
2022-12-18T16:32:22.423Z,19.09
2022-12-18T16:34:50.872Z,19.10
2022-12-18T16:37:18.278Z,19.10
2022-12-18T16:39:45.986Z,19.10
2022-12-18T16:42:17.528Z,19.10
2022-12-18T16:44:45.985Z,19.11
2022-12-18T16:47:14.939Z,19.12
2022-12-18T16:49:45.333Z,19.12
2022-12-18T16:52:14.043Z,19.13
2022-12-18T16:54:41.417Z,19.13
2022-12-18T16:57:13.104Z,19.13
2022-12-18T16:59:40.529Z,19.13
2022-12-18T17:02:15.024Z,19.14
2022-12-18T17:04:44.136Z,19.15
2022-12-18T17:07:11.824Z,19.14
2022-12-18T17:09:40.517Z,19.14
2022-12-18T17:12:08.379Z,19.15
2022-12-18T17:14:36.382Z,19.16
2022-12-18T17:17:21.273Z,19.16
2022-12-18T17:19:49.563Z,19.16
2022-12-18T17:22:16.974Z,19.17
2022-12-18T17:24:44.443Z,19.16
2022-12-18T17:27:11.837Z,19.17
2022-12-18T17:29:45.319Z,19.18
2022-12-18T17:32:15.304Z,19.17
2022-12-18T17:34:42.644Z,19.18
2022-12-18T17:37:11.598Z,19.18
2022-12-18T17:39:39.203Z,19.19
2022-12-18T17:42:07.697Z,19.18
2022-12-18T17:44:37.096Z,19.18
2022-12-18T17:47:06.089Z,19.19
2022-12-18T17:49:33.420Z,19.19
2022-12-18T17:52:00.742Z,19.20
2022-12-18T17:54:28.096Z,19.20
2022-12-18T17:56:55.486Z,19.20
2022-12-18T17:59:22.873Z,19.20
2022-12-18T18:01:50.408Z,19.21
2022-12-18T18:04:17.858Z,19.21
2022-12-18T18:06:45.205Z,19.22
2022-12-18T18:09:16.126Z,19.22
2022-12-18T18:12:03.797Z,19.22
2022-12-18T18:14:32.348Z,19.22
2022-12-18T18:17:04.217Z,19.22
2022-12-18T18:19:33.630Z,19.23
2022-12-18T18:22:02.132Z,19.24
2022-12-18T18:24:30.795Z,19.24
2022-12-18T18:27:00.017Z,19.24
2022-12-18T18:29:30.553Z,19.23
2022-12-18T18:31:58.847Z,19.24
2022-12-18T18:34:29.483Z,19.25
2022-12-18T18:36:56.935Z,19.26
2022-12-18T18:39:24.339Z,19.25
2022-12-18T18:41:51.777Z,19.26
2022-12-18T18:44:26.141Z,19.26
2022-12-18T18:46:55.928Z,19.28
2022-12-18T18:49:27.058Z,19.29
2022-12-18T18:51:55.848Z,19.29
2022-12-18T18:54:23.743Z,19.31
2022-12-18T18:59:38.636Z,19.31
2022-12-18T19:02:06.601Z,19.32
2022-12-18T19:04:34.428Z,19.33
2022-12-18T19:07:02.171Z,19.34
2022-12-18T19:09:29.505Z,19.34
2022-12-18T19:12:16.193Z,19.35
2022-12-18T19:14:44.714Z,19.36
2022-12-18T19:17:11.990Z,19.37
2022-12-18T19:19:39.345Z,19.36
2022-12-18T19:22:06.744Z,19.38
2022-12-18T19:24:34.112Z,19.39
2022-12-18T19:27:01.482Z,19.40
2022-12-18T19:29:28.809Z,19.40
2022-12-18T19:31:56.315Z,19.41
2022-12-18T19:34:23.604Z,19.41
2022-12-18T19:36:53.903Z,19.42
2022-12-18T19:39:25.673Z,19.43
2022-12-18T19:41:53.036Z,19.43
2022-12-18T19:45:25.791Z,19.44
2022-12-18T19:47:53.215Z,19.44
2022-12-18T19:50:20.572Z,19.45
2022-12-18T19:52:47.870Z,19.46
2022-12-18T19:55:15.320Z,19.46
2022-12-18T19:57:42.600Z,19.46
2022-12-18T20:00:16.926Z,19.48
2022-12-18T20:02:46.130Z,19.47
2022-12-18T20:05:13.994Z,19.49
2022-12-18T20:07:41.398Z,19.49
2022-12-18T20:10:14.629Z,19.50
2022-12-18T20:12:43.408Z,19.51
2022-12-18T20:15:11.171Z,19.50
2022-12-18T20:17:38.728Z,19.51
2022-12-18T20:20:06.654Z,19.53
2022-12-18T20:22:34.694Z,19.54
2022-12-18T20:25:02.058Z,19.54
2022-12-18T20:27:29.442Z,19.53
2022-12-18T20:29:56.838Z,19.53
2022-12-18T20:32:25.549Z,19.54
2022-12-18T20:34:52.970Z,19.53
2022-12-18T20:37:20.533Z,19.51
2022-12-18T20:39:48.651Z,19.52
2022-12-18T20:42:16.798Z,19.54
2022-12-18T20:44:44.082Z,19.54
2022-12-18T20:47:11.589Z,19.55
2022-12-18T20:49:38.914Z,19.56
2022-12-18T20:52:10.073Z,19.56
2022-12-18T20:54:37.448Z,19.57
2022-12-18T20:57:04.762Z,19.57
2022-12-18T20:59:32.204Z,19.56
2022-12-18T21:01:59.643Z,19.57
2022-12-18T21:04:27.289Z,19.58
2022-12-18T21:06:57.793Z,19.57
2022-12-18T21:09:27.847Z,19.58
2022-12-18T21:12:18.204Z,19.58
2022-12-18T21:14:45.639Z,19.58
2022-12-18T21:17:13.928Z,19.58
2022-12-18T21:19:41.241Z,19.58
2022-12-18T21:22:09.987Z,19.58
2022-12-18T21:24:38.752Z,19.58
2022-12-18T21:27:06.215Z,19.58
2022-12-18T21:29:34.866Z,19.59
2022-12-18T21:32:03.081Z,19.58
2022-12-18T21:34:34.153Z,19.59
2022-12-18T21:37:02.310Z,19.59
2022-12-18T21:39:30.750Z,19.60
2022-12-18T21:42:16.855Z,19.59
2022-12-18T21:44:46.954Z,19.60
2022-12-18T21:47:21.314Z,19.61
2022-12-18T21:49:53.102Z,19.60
2022-12-18T21:52:29.796Z,19.60
2022-12-18T21:55:09.019Z,19.60
2022-12-18T21:57:41.413Z,19.62
2022-12-18T22:00:18.452Z,19.62
2022-12-18T22:02:46.514Z,19.61
2022-12-18T22:05:14.006Z,19.61
2022-12-18T22:07:41.376Z,19.61
2022-12-18T22:10:09.137Z,19.61
2022-12-18T22:12:44.066Z,19.61
2022-12-18T22:15:20.018Z,19.61
2022-12-18T22:17:59.971Z,19.62
2022-12-18T22:20:29.847Z,19.62
2022-12-18T22:22:57.958Z,19.63
2022-12-18T22:25:25.547Z,19.62
2022-12-18T22:28:11.596Z,19.63
2022-12-18T22:30:39.241Z,19.63
2022-12-18T22:33:06.675Z,19.63
2022-12-18T22:35:33.909Z,19.64
2022-12-18T22:38:01.721Z,19.65
2022-12-18T22:40:29.669Z,19.65
2022-12-18T22:42:57.187Z,19.64
2022-12-18T22:45:26.576Z,19.66
2022-12-18T22:47:54.071Z,19.66
2022-12-18T22:50:21.308Z,19.67
2022-12-18T22:52:48.578Z,19.67
2022-12-18T22:55:16.097Z,19.66
2022-12-18T22:57:49.102Z,19.67
2022-12-18T23:00:19.865Z,19.68
2022-12-18T23:02:59.276Z,19.68
2022-12-18T23:05:27.410Z,19.67
2022-12-18T23:07:54.720Z,19.68
2022-12-18T23:10:22.740Z,19.68
2022-12-18T23:12:50.011Z,19.68
2022-12-18T23:15:17.304Z,19.68
2022-12-18T23:17:46.759Z,19.69
2022-12-18T23:20:14.245Z,19.68
2022-12-18T23:22:41.603Z,19.69
2022-12-18T23:25:09.424Z,19.69
2022-12-18T23:27:36.908Z,19.69
2022-12-18T23:30:04.728Z,19.69
2022-12-18T23:32:32.345Z,19.69
2022-12-18T23:35:01.433Z,19.69
2022-12-18T23:37:56.971Z,19.68
2022-12-18T23:40:16.180Z,19.67
2022-12-18T23:42:43.469Z,19.66
2022-12-18T23:45:17.545Z,19.65
2022-12-18T23:47:47.057Z,19.64
2022-12-18T23:50:18.357Z,19.65
2022-12-18T23:52:45.618Z,19.64
2022-12-18T23:55:12.860Z,19.62
2022-12-18T23:57:40.101Z,19.61
